sensor_id;sensor_type;location;lat;lon;timestamp;pressure;altitude;pressure_sealevel;temperature;humidity
62632;BME280;48703;51.248;-0.546;2023-06-04T00:00:07;101686;;;12.86;60.89
62632;BME280;48703;51.248;-0.546;2023-06-04T00:03:08;101685;;;12.83;62.33
62632;BME280;48703;51.248;-0.546;2023-06-04T00:06:10;101689;;;12.80;62.16
62632;BME280;48703;51.248;-0.546;2023-06-04T00:09:11;101686;;;12.73;62.89
62632;BME280;48703;51.248;-0.546;2023-06-04T00:12:13;101688;;;12.68;60.71
62632;BME280;48703;51.248;-0.546;2023-06-04T00:15:15;101687;;;12.65;60.48
62632;BME280;48703;51.248;-0.546;2023-06-04T00:18:17;101686;;;12.63;59.92
62632;BME280;48703;51.248;-0.546;2023-06-04T00:21:19;101682;;;12.61;60.64
62632;BME280;48703;51.248;-0.546;2023-06-04T00:24:21;101683;;;12.59;60.40
62632;BME280;48703;51.248;-0.546;2023-06-04T00:27:23;101681;;;12.49;63.00
62632;BME280;48703;51.248;-0.546;2023-06-04T00:30:24;101682;;;12.43;62.92
62632;BME280;48703;51.248;-0.546;2023-06-04T00:33:26;101681;;;12.40;62.51
62632;BME280;48703;51.248;-0.546;2023-06-04T00:36:28;101683;;;12.36;62.29
62632;BME280;48703;51.248;-0.546;2023-06-04T00:39:31;101686;;;12.30;63.14
62632;BME280;48703;51.248;-0.546;2023-06-04T00:42:32;101688;;;12.26;62.82
62632;BME280;48703;51.248;-0.546;2023-06-04T00:45:34;101685;;;12.16;63.87
62632;BME280;48703;51.248;-0.546;2023-06-04T00:48:36;101686;;;12.08;63.34
62632;BME280;48703;51.248;-0.546;2023-06-04T00:51:37;101686;;;12.00;64.54
62632;BME280;48703;51.248;-0.546;2023-06-04T00:54:39;101687;;;11.94;64.79
62632;BME280;48703;51.248;-0.546;2023-06-04T00:57:41;101689;;;11.91;64.90
62632;BME280;48703;51.248;-0.546;2023-06-04T01:00:43;101688;;;11.88;64.88
62632;BME280;48703;51.248;-0.546;2023-06-04T01:03:46;101693;;;11.85;65.21
62632;BME280;48703;51.248;-0.546;2023-06-04T01:06:48;101694;;;11.82;65.30
62632;BME280;48703;51.248;-0.546;2023-06-04T01:09:49;101692;;;11.81;65.58
62632;BME280;48703;51.248;-0.546;2023-06-04T01:12:51;101689;;;11.78;65.68
62632;BME280;48703;51.248;-0.546;2023-06-04T01:15:52;101692;;;11.74;64.91
62632;BME280;48703;51.248;-0.546;2023-06-04T01:18:55;101691;;;11.70;65.83
62632;BME280;48703;51.248;-0.546;2023-06-04T01:21:57;101685;;;11.64;65.88
62632;BME280;48703;51.248;-0.546;2023-06-04T01:24:59;101685;;;11.58;66.86
62632;BME280;48703;51.248;-0.546;2023-06-04T01:28:01;101678;;;11.46;67.95
62632;BME280;48703;51.248;-0.546;2023-06-04T01:31:02;101673;;;11.40;67.27
62632;BME280;48703;51.248;-0.546;2023-06-04T01:34:07;101668;;;11.37;66.83
62632;BME280;48703;51.248;-0.546;2023-06-04T01:37:06;101665;;;11.33;67.93
62632;BME280;48703;51.248;-0.546;2023-06-04T01:40:08;101660;;;11.30;67.50
62632;BME280;48703;51.248;-0.546;2023-06-04T01:43:09;101657;;;11.29;67.17
62632;BME280;48703;51.248;-0.546;2023-06-04T01:46:11;101656;;;11.26;68.04
62632;BME280;48703;51.248;-0.546;2023-06-04T01:49:13;101659;;;11.25;67.63
62632;BME280;48703;51.248;-0.546;2023-06-04T01:52:15;101663;;;11.20;68.25
62632;BME280;48703;51.248;-0.546;2023-06-04T01:55:17;101664;;;11.14;67.98
62632;BME280;48703;51.248;-0.546;2023-06-04T01:58:19;101662;;;11.11;69.05
62632;BME280;48703;51.248;-0.546;2023-06-04T02:01:20;101659;;;11.07;68.54
62632;BME280;48703;51.248;-0.546;2023-06-04T02:04:22;101661;;;11.04;69.36
62632;BME280;48703;51.248;-0.546;2023-06-04T02:07:24;101663;;;11.04;69.39
62632;BME280;48703;51.248;-0.546;2023-06-04T02:10:26;101665;;;11.01;68.77
62632;BME280;48703;51.248;-0.546;2023-06-04T02:13:28;101668;;;11.00;69.45
62632;BME280;48703;51.248;-0.546;2023-06-04T02:16:30;101669;;;10.95;69.87
62632;BME280;48703;51.248;-0.546;2023-06-04T02:19:32;101670;;;10.87;70.18
62632;BME280;48703;51.248;-0.546;2023-06-04T02:22:33;101669;;;10.86;69.93
62632;BME280;48703;51.248;-0.546;2023-06-04T02:25:35;101669;;;10.82;70.73
62632;BME280;48703;51.248;-0.546;2023-06-04T02:28:37;101674;;;10.79;70.35
62632;BME280;48703;51.248;-0.546;2023-06-04T02:31:39;101678;;;10.74;71.42
62632;BME280;48703;51.248;-0.546;2023-06-04T02:34:41;101676;;;10.70;71.20
62632;BME280;48703;51.248;-0.546;2023-06-04T02:37:43;101675;;;10.64;71.02
62632;BME280;48703;51.248;-0.546;2023-06-04T02:40:45;101673;;;10.64;70.98
62632;BME280;48703;51.248;-0.546;2023-06-04T02:43:47;101673;;;10.61;71.67
62632;BME280;48703;51.248;-0.546;2023-06-04T02:46:48;101672;;;10.55;71.23
62632;BME280;48703;51.248;-0.546;2023-06-04T02:49:50;101670;;;10.49;72.53
62632;BME280;48703;51.248;-0.546;2023-06-04T02:52:52;101671;;;10.45;72.48
62632;BME280;48703;51.248;-0.546;2023-06-04T02:55:54;101672;;;10.41;72.46
62632;BME280;48703;51.248;-0.546;2023-06-04T02:58:56;101672;;;10.35;72.95
62632;BME280;48703;51.248;-0.546;2023-06-04T03:01:58;101669;;;10.34;73.17
62632;BME280;48703;51.248;-0.546;2023-06-04T03:05:00;101670;;;10.28;73.04
62632;BME280;48703;51.248;-0.546;2023-06-04T03:08:02;101672;;;10.28;73.05
62632;BME280;48703;51.248;-0.546;2023-06-04T03:11:03;101671;;;10.28;73.35
62632;BME280;48703;51.248;-0.546;2023-06-04T03:14:05;101671;;;10.26;73.76
62632;BME280;48703;51.248;-0.546;2023-06-04T03:17:07;101670;;;10.19;73.59
62632;BME280;48703;51.248;-0.546;2023-06-04T03:20:09;101669;;;10.13;74.25
62632;BME280;48703;51.248;-0.546;2023-06-04T03:23:11;101672;;;10.07;74.36
62632;BME280;48703;51.248;-0.546;2023-06-04T03:26:13;101673;;;10.06;74.42
62632;BME280;48703;51.248;-0.546;2023-06-04T03:29:15;101675;;;10.05;74.47
62632;BME280;48703;51.248;-0.546;2023-06-04T03:32:17;101675;;;10.05;74.32
62632;BME280;48703;51.248;-0.546;2023-06-04T03:35:18;101672;;;10.01;74.54
62632;BME280;48703;51.248;-0.546;2023-06-04T03:38:20;101673;;;9.98;74.98
62632;BME280;48703;51.248;-0.546;2023-06-04T03:41:22;101673;;;9.98;74.78
62632;BME280;48703;51.248;-0.546;2023-06-04T03:44:24;101672;;;9.93;75.37
62632;BME280;48703;51.248;-0.546;2023-06-04T03:47:26;101671;;;9.89;75.68
62632;BME280;48703;51.248;-0.546;2023-06-04T03:50:28;101670;;;9.87;76.09
62632;BME280;48703;51.248;-0.546;2023-06-04T03:53:29;101669;;;9.83;76.30
62632;BME280;48703;51.248;-0.546;2023-06-04T03:56:31;101669;;;9.80;76.24
62632;BME280;48703;51.248;-0.546;2023-06-04T03:59:33;101667;;;9.75;76.78
62632;BME280;48703;51.248;-0.546;2023-06-04T04:02:35;101668;;;9.70;77.19
62632;BME280;48703;51.248;-0.546;2023-06-04T04:05:37;101671;;;9.67;77.02
62632;BME280;48703;51.248;-0.546;2023-06-04T04:08:39;101675;;;9.64;77.47
62632;BME280;48703;51.248;-0.546;2023-06-04T04:11:41;101674;;;9.59;77.69
62632;BME280;48703;51.248;-0.546;2023-06-04T04:14:43;101676;;;9.56;78.32
62632;BME280;48703;51.248;-0.546;2023-06-04T04:17:44;101671;;;9.53;78.69
62632;BME280;48703;51.248;-0.546;2023-06-04T04:20:46;101670;;;9.55;77.99
62632;BME280;48703;51.248;-0.546;2023-06-04T04:23:48;101672;;;9.57;77.99
62632;BME280;48703;51.248;-0.546;2023-06-04T04:26:50;101674;;;9.53;78.86
62632;BME280;48703;51.248;-0.546;2023-06-04T04:29:52;101674;;;9.49;78.51
62632;BME280;48703;51.248;-0.546;2023-06-04T04:32:54;101677;;;9.50;79.29
62632;BME280;48703;51.248;-0.546;2023-06-04T04:35:56;101679;;;9.45;79.47
62632;BME280;48703;51.248;-0.546;2023-06-04T04:38:58;101678;;;9.45;79.73
62632;BME280;48703;51.248;-0.546;2023-06-04T04:41:59;101674;;;9.43;79.98
62632;BME280;48703;51.248;-0.546;2023-06-04T04:45:01;101672;;;9.42;80.30
62632;BME280;48703;51.248;-0.546;2023-06-04T04:48:03;101673;;;9.40;80.95
62632;BME280;48703;51.248;-0.546;2023-06-04T04:51:05;101673;;;9.40;81.06
62632;BME280;48703;51.248;-0.546;2023-06-04T04:54:07;101672;;;9.40;81.33
62632;BME280;48703;51.248;-0.546;2023-06-04T04:57:09;101669;;;9.42;81.29
62632;BME280;48703;51.248;-0.546;2023-06-04T05:00:11;101672;;;9.44;81.39
62632;BME280;48703;51.248;-0.546;2023-06-04T05:03:12;101671;;;9.45;81.89
62632;BME280;48703;51.248;-0.546;2023-06-04T05:06:14;101672;;;9.51;81.43
62632;BME280;48703;51.248;-0.546;2023-06-04T05:09:16;101673;;;9.53;81.73
62632;BME280;48703;51.248;-0.546;2023-06-04T05:12:18;101675;;;9.57;81.84
62632;BME280;48703;51.248;-0.546;2023-06-04T05:15:20;101677;;;9.60;82.11
62632;BME280;48703;51.248;-0.546;2023-06-04T05:18:22;101678;;;9.65;81.96
62632;BME280;48703;51.248;-0.546;2023-06-04T05:21:24;101674;;;9.69;81.53
62632;BME280;48703;51.248;-0.546;2023-06-04T05:24:26;101676;;;9.72;81.39
62632;BME280;48703;51.248;-0.546;2023-06-04T05:27:27;101672;;;9.75;81.74
62632;BME280;48703;51.248;-0.546;2023-06-04T05:30:29;101671;;;9.78;81.35
62632;BME280;48703;51.248;-0.546;2023-06-04T05:33:31;101675;;;9.82;81.36
62632;BME280;48703;51.248;-0.546;2023-06-04T05:36:33;101677;;;9.86;81.48
62632;BME280;48703;51.248;-0.546;2023-06-04T05:39:35;101677;;;9.89;81.03
62632;BME280;48703;51.248;-0.546;2023-06-04T05:42:37;101678;;;9.93;81.58
62632;BME280;48703;51.248;-0.546;2023-06-04T05:45:39;101679;;;9.97;81.57
62632;BME280;48703;51.248;-0.546;2023-06-04T05:48:40;101678;;;10.00;81.54
62632;BME280;48703;51.248;-0.546;2023-06-04T05:51:42;101678;;;10.05;81.21
62632;BME280;48703;51.248;-0.546;2023-06-04T05:54:44;101677;;;10.10;81.90
62632;BME280;48703;51.248;-0.546;2023-06-04T05:57:46;101679;;;10.19;81.64
62632;BME280;48703;51.248;-0.546;2023-06-04T06:00:48;101680;;;10.28;81.04
62632;BME280;48703;51.248;-0.546;2023-06-04T06:03:50;101680;;;10.30;81.56
62632;BME280;48703;51.248;-0.546;2023-06-04T06:06:52;101677;;;10.40;81.59
62632;BME280;48703;51.248;-0.546;2023-06-04T06:09:54;101675;;;10.46;80.86
62632;BME280;48703;51.248;-0.546;2023-06-04T06:12:55;101677;;;10.50;80.77
62632;BME280;48703;51.248;-0.546;2023-06-04T06:15:57;101681;;;10.54;80.99
62632;BME280;48703;51.248;-0.546;2023-06-04T06:18:59;101683;;;10.59;80.30
62632;BME280;48703;51.248;-0.546;2023-06-04T06:22:01;101684;;;10.66;80.68
62632;BME280;48703;51.248;-0.546;2023-06-04T06:25:03;101686;;;10.73;80.51
62632;BME280;48703;51.248;-0.546;2023-06-04T06:28:05;101686;;;10.79;80.05
62632;BME280;48703;51.248;-0.546;2023-06-04T06:31:07;101685;;;10.85;79.89
62632;BME280;48703;51.248;-0.546;2023-06-04T06:34:09;101685;;;10.93;79.20
62632;BME280;48703;51.248;-0.546;2023-06-04T06:37:10;101685;;;11.01;79.13
62632;BME280;48703;51.248;-0.546;2023-06-04T06:40:12;101684;;;11.10;78.99
62632;BME280;48703;51.248;-0.546;2023-06-04T06:43:14;101681;;;11.17;77.68
62632;BME280;48703;51.248;-0.546;2023-06-04T06:46:16;101686;;;11.21;78.28
62632;BME280;48703;51.248;-0.546;2023-06-04T06:49:18;101688;;;11.26;78.15
62632;BME280;48703;51.248;-0.546;2023-06-04T06:52:20;101690;;;11.34;77.64
62632;BME280;48703;51.248;-0.546;2023-06-04T06:55:22;101687;;;11.36;77.04
62632;BME280;48703;51.248;-0.546;2023-06-04T06:58:24;101684;;;11.44;76.53
62632;BME280;48703;51.248;-0.546;2023-06-04T07:01:25;101686;;;11.53;76.56
62632;BME280;48703;51.248;-0.546;2023-06-04T07:04:27;101685;;;11.57;76.08
62632;BME280;48703;51.248;-0.546;2023-06-04T07:07:29;101686;;;11.60;75.99
62632;BME280;48703;51.248;-0.546;2023-06-04T07:10:31;101689;;;11.64;75.96
62632;BME280;48703;51.248;-0.546;2023-06-04T07:13:33;101693;;;11.72;76.19
62632;BME280;48703;51.248;-0.546;2023-06-04T07:16:35;101692;;;11.80;75.01
62632;BME280;48703;51.248;-0.546;2023-06-04T07:19:37;101695;;;11.90;74.63
62632;BME280;48703;51.248;-0.546;2023-06-04T07:22:38;101694;;;11.97;74.30
62632;BME280;48703;51.248;-0.546;2023-06-04T07:25:40;101693;;;12.05;74.27
62632;BME280;48703;51.248;-0.546;2023-06-04T07:28:42;101694;;;12.12;74.03
62632;BME280;48703;51.248;-0.546;2023-06-04T07:31:44;101695;;;12.20;73.19
62632;BME280;48703;51.248;-0.546;2023-06-04T07:34:46;101702;;;12.29;73.08
62632;BME280;48703;51.248;-0.546;2023-06-04T07:37:48;101703;;;12.33;71.88
62632;BME280;48703;51.248;-0.546;2023-06-04T07:40:50;101703;;;12.38;71.93
62632;BME280;48703;51.248;-0.546;2023-06-04T07:43:52;101705;;;12.46;71.59
62632;BME280;48703;51.248;-0.546;2023-06-04T07:46:53;101707;;;12.53;71.54
62632;BME280;48703;51.248;-0.546;2023-06-04T07:49:55;101707;;;12.63;70.48
62632;BME280;48703;51.248;-0.546;2023-06-04T07:52:57;101702;;;12.72;70.69
62632;BME280;48703;51.248;-0.546;2023-06-04T07:55:59;101705;;;12.81;70.54
62632;BME280;48703;51.248;-0.546;2023-06-04T07:59:01;101704;;;12.89;70.00
62632;BME280;48703;51.248;-0.546;2023-06-04T08:02:03;101703;;;12.96;69.24
62632;BME280;48703;51.248;-0.546;2023-06-04T08:05:05;101700;;;13.05;69.25
62632;BME280;48703;51.248;-0.546;2023-06-04T08:08:06;101698;;;13.16;69.09
62632;BME280;48703;51.248;-0.546;2023-06-04T08:11:09;101701;;;13.24;69.39
62632;BME280;48703;51.248;-0.546;2023-06-04T08:14:10;101700;;;13.34;68.64
62632;BME280;48703;51.248;-0.546;2023-06-04T08:17:12;101698;;;13.39;67.95
62632;BME280;48703;51.248;-0.546;2023-06-04T08:20:14;101693;;;13.45;67.98
62632;BME280;48703;51.248;-0.546;2023-06-04T08:23:16;101698;;;13.52;67.34
62632;BME280;48703;51.248;-0.546;2023-06-04T08:26:18;101703;;;13.60;67.30
62632;BME280;48703;51.248;-0.546;2023-06-04T08:29:20;101704;;;13.71;66.69
62632;BME280;48703;51.248;-0.546;2023-06-04T08:32:21;101700;;;13.77;66.89
62632;BME280;48703;51.248;-0.546;2023-06-04T08:35:23;101701;;;13.89;66.75
62632;BME280;48703;51.248;-0.546;2023-06-04T08:38:25;101700;;;13.97;66.01
62632;BME280;48703;51.248;-0.546;2023-06-04T08:41:28;101701;;;14.04;65.63
62632;BME280;48703;51.248;-0.546;2023-06-04T08:44:29;101700;;;14.13;65.45
62632;BME280;48703;51.248;-0.546;2023-06-04T08:47:32;101706;;;14.22;65.49
62632;BME280;48703;51.248;-0.546;2023-06-04T08:50:33;101705;;;14.26;64.65
62632;BME280;48703;51.248;-0.546;2023-06-04T08:53:35;101709;;;14.33;65.27
62632;BME280;48703;51.248;-0.546;2023-06-04T08:56:36;101709;;;14.40;64.32
62632;BME280;48703;51.248;-0.546;2023-06-04T08:59:38;101716;;;14.49;65.05
62632;BME280;48703;51.248;-0.546;2023-06-04T09:02:40;101715;;;14.52;63.71
62632;BME280;48703;51.248;-0.546;2023-06-04T09:05:42;101711;;;14.57;63.55
62632;BME280;48703;51.248;-0.546;2023-06-04T09:08:44;101712;;;14.65;63.48
62632;BME280;48703;51.248;-0.546;2023-06-04T09:11:49;101713;;;14.76;62.57
62632;BME280;48703;51.248;-0.546;2023-06-04T09:14:48;101708;;;14.84;61.87
62632;BME280;48703;51.248;-0.546;2023-06-04T09:17:49;101713;;;14.93;62.79
62632;BME280;48703;51.248;-0.546;2023-06-04T09:20:59;101711;;;15.02;63.56
62632;BME280;48703;51.248;-0.546;2023-06-04T09:23:53;101714;;;15.13;61.99
62632;BME280;48703;51.248;-0.546;2023-06-04T09:26:55;101714;;;15.19;61.27
62632;BME280;48703;51.248;-0.546;2023-06-04T09:29:57;101713;;;15.30;62.30
62632;BME280;48703;51.248;-0.546;2023-06-04T09:33:05;101711;;;15.38;61.29
62632;BME280;48703;51.248;-0.546;2023-06-04T09:36:01;101711;;;15.47;60.94
62632;BME280;48703;51.248;-0.546;2023-06-04T09:39:03;101710;;;15.55;60.93
62632;BME280;48703;51.248;-0.546;2023-06-04T09:42:04;101706;;;15.69;59.78
62632;BME280;48703;51.248;-0.546;2023-06-04T09:45:07;101706;;;15.80;61.19
62632;BME280;48703;51.248;-0.546;2023-06-04T09:48:08;101706;;;15.90;59.61
62632;BME280;48703;51.248;-0.546;2023-06-04T09:51:11;101705;;;15.97;59.29
62632;BME280;48703;51.248;-0.546;2023-06-04T09:54:12;101702;;;16.05;59.16
62632;BME280;48703;51.248;-0.546;2023-06-04T09:57:14;101706;;;16.17;59.30
62632;BME280;48703;51.248;-0.546;2023-06-04T10:00:16;101710;;;16.29;58.39
62632;BME280;48703;51.248;-0.546;2023-06-04T10:03:17;101714;;;16.37;58.17
62632;BME280;48703;51.248;-0.546;2023-06-04T10:06:19;101719;;;16.48;57.60
62632;BME280;48703;51.248;-0.546;2023-06-04T10:09:21;101720;;;16.56;55.44
62632;BME280;48703;51.248;-0.546;2023-06-04T10:12:25;101718;;;16.65;55.94
62632;BME280;48703;51.248;-0.546;2023-06-04T10:15:25;101716;;;16.71;55.68
62632;BME280;48703;51.248;-0.546;2023-06-04T10:18:27;101717;;;16.81;55.17
62632;BME280;48703;51.248;-0.546;2023-06-04T10:21:29;101717;;;16.91;56.01
62632;BME280;48703;51.248;-0.546;2023-06-04T10:24:31;101718;;;17.01;56.35
62632;BME280;48703;51.248;-0.546;2023-06-04T10:27:32;101718;;;17.08;54.15
62632;BME280;48703;51.248;-0.546;2023-06-04T10:30:34;101721;;;17.14;54.75
62632;BME280;48703;51.248;-0.546;2023-06-04T10:33:36;101718;;;17.17;55.27
62632;BME280;48703;51.248;-0.546;2023-06-04T10:36:43;101717;;;17.28;55.43
62632;BME280;48703;51.248;-0.546;2023-06-04T10:39:40;101713;;;17.33;54.27
62632;BME280;48703;51.248;-0.546;2023-06-04T10:42:42;101711;;;17.37;55.65
62632;BME280;48703;51.248;-0.546;2023-06-04T10:45:45;101720;;;17.45;53.44
62632;BME280;48703;51.248;-0.546;2023-06-04T10:48:46;101718;;;17.49;52.89
62632;BME280;48703;51.248;-0.546;2023-06-04T10:51:47;101721;;;17.56;52.69
62632;BME280;48703;51.248;-0.546;2023-06-04T10:54:49;101718;;;17.62;53.32
62632;BME280;48703;51.248;-0.546;2023-06-04T10:57:52;101714;;;17.69;52.13
62632;BME280;48703;51.248;-0.546;2023-06-04T11:00:53;101711;;;17.71;52.12
62632;BME280;48703;51.248;-0.546;2023-06-04T11:03:55;101714;;;17.77;53.00
62632;BME280;48703;51.248;-0.546;2023-06-04T11:07:00;101715;;;17.82;52.93
62632;BME280;48703;51.248;-0.546;2023-06-04T11:09:58;101714;;;17.88;52.65
62632;BME280;48703;51.248;-0.546;2023-06-04T11:13:01;101715;;;17.94;52.07
62632;BME280;48703;51.248;-0.546;2023-06-04T11:16:02;101719;;;17.99;52.29
62632;BME280;48703;51.248;-0.546;2023-06-04T11:19:04;101721;;;18.04;51.79
62632;BME280;48703;51.248;-0.546;2023-06-04T11:22:06;101722;;;18.08;51.58
62632;BME280;48703;51.248;-0.546;2023-06-04T11:25:08;101722;;;18.13;51.57
62632;BME280;48703;51.248;-0.546;2023-06-04T11:28:14;101728;;;18.19;52.17
62632;BME280;48703;51.248;-0.546;2023-06-04T11:31:12;101728;;;18.24;50.96
62632;BME280;48703;51.248;-0.546;2023-06-04T11:34:21;101721;;;18.27;51.53
62632;BME280;48703;51.248;-0.546;2023-06-04T11:37:15;101720;;;18.32;50.41
62632;BME280;48703;51.248;-0.546;2023-06-04T11:40:17;101715;;;18.35;50.28
62632;BME280;48703;51.248;-0.546;2023-06-04T11:43:19;101717;;;18.39;51.89
62632;BME280;48703;51.248;-0.546;2023-06-04T11:46:21;101714;;;18.46;49.92
62632;BME280;48703;51.248;-0.546;2023-06-04T11:49:23;101714;;;18.52;49.10
62632;BME280;48703;51.248;-0.546;2023-06-04T11:52:25;101706;;;18.56;49.49
62632;BME280;48703;51.248;-0.546;2023-06-04T11:55:27;101702;;;18.63;49.93
62632;BME280;48703;51.248;-0.546;2023-06-04T11:58:28;101699;;;18.68;50.36
62632;BME280;48703;51.248;-0.546;2023-06-04T12:01:30;101691;;;18.73;49.61
62632;BME280;48703;51.248;-0.546;2023-06-04T12:04:32;101690;;;18.77;49.33
62632;BME280;48703;51.248;-0.546;2023-06-04T12:07:34;101686;;;18.84;48.51
62632;BME280;48703;51.248;-0.546;2023-06-04T12:10:36;101689;;;18.89;47.57
62632;BME280;48703;51.248;-0.546;2023-06-04T12:13:38;101690;;;18.92;46.57
62632;BME280;48703;51.248;-0.546;2023-06-04T12:16:39;101686;;;18.97;47.09
62632;BME280;48703;51.248;-0.546;2023-06-04T12:19:45;101687;;;18.98;46.66
62632;BME280;48703;51.248;-0.546;2023-06-04T12:22:45;101682;;;19.04;47.21
62632;BME280;48703;51.248;-0.546;2023-06-04T12:25:49;101684;;;19.08;46.53
62632;BME280;48703;51.248;-0.546;2023-06-04T12:28:48;101687;;;19.12;46.43
62632;BME280;48703;51.248;-0.546;2023-06-04T12:31:49;101679;;;19.15;47.05
62632;BME280;48703;51.248;-0.546;2023-06-04T12:34:51;101672;;;19.20;47.47
62632;BME280;48703;51.248;-0.546;2023-06-04T12:37:53;101671;;;19.26;46.48
62632;BME280;48703;51.248;-0.546;2023-06-04T12:40:54;101670;;;19.28;46.90
62632;BME280;48703;51.248;-0.546;2023-06-04T12:43:56;101676;;;19.35;46.03
62632;BME280;48703;51.248;-0.546;2023-06-04T12:46:58;101677;;;19.38;45.17
62632;BME280;48703;51.248;-0.546;2023-06-04T12:50:00;101677;;;19.37;44.80
62632;BME280;48703;51.248;-0.546;2023-06-04T12:53:02;101682;;;19.43;45.97
62632;BME280;48703;51.248;-0.546;2023-06-04T12:56:04;101679;;;19.47;46.84
62632;BME280;48703;51.248;-0.546;2023-06-04T12:59:06;101672;;;19.52;46.26
62632;BME280;48703;51.248;-0.546;2023-06-04T13:02:08;101676;;;19.56;46.12
62632;BME280;48703;51.248;-0.546;2023-06-04T13:05:09;101668;;;19.62;44.41
62632;BME280;48703;51.248;-0.546;2023-06-04T13:08:11;101668;;;19.66;45.85
62632;BME280;48703;51.248;-0.546;2023-06-04T13:11:13;101674;;;19.72;45.58
62632;BME280;48703;51.248;-0.546;2023-06-04T13:14:15;101676;;;19.78;44.83
62632;BME280;48703;51.248;-0.546;2023-06-04T13:17:17;101673;;;19.81;44.22
62632;BME280;48703;51.248;-0.546;2023-06-04T13:20:19;101672;;;19.83;44.90
62632;BME280;48703;51.248;-0.546;2023-06-04T13:23:21;101671;;;19.87;44.17
62632;BME280;48703;51.248;-0.546;2023-06-04T13:26:22;101669;;;19.88;43.92
62632;BME280;48703;51.248;-0.546;2023-06-04T13:29:24;101661;;;19.86;44.16
62632;BME280;48703;51.248;-0.546;2023-06-04T13:32:26;101660;;;19.86;43.98
62632;BME280;48703;51.248;-0.546;2023-06-04T13:35:28;101663;;;19.89;44.51
62632;BME280;48703;51.248;-0.546;2023-06-04T13:38:30;101656;;;19.97;43.54
62632;BME280;48703;51.248;-0.546;2023-06-04T13:41:32;101655;;;19.99;44.03
62632;BME280;48703;51.248;-0.546;2023-06-04T13:44:34;101655;;;20.06;44.48
62632;BME280;48703;51.248;-0.546;2023-06-04T13:47:35;101652;;;20.15;44.50
62632;BME280;48703;51.248;-0.546;2023-06-04T13:50:37;101658;;;20.22;43.75
62632;BME280;48703;51.248;-0.546;2023-06-04T13:53:39;101659;;;20.28;42.60
62632;BME280;48703;51.248;-0.546;2023-06-04T13:56:41;101660;;;20.30;43.80
62632;BME280;48703;51.248;-0.546;2023-06-04T13:59:43;101659;;;20.36;44.39
62632;BME280;48703;51.248;-0.546;2023-06-04T14:02:45;101655;;;20.44;44.48
62632;BME280;48703;51.248;-0.546;2023-06-04T14:05:47;101650;;;20.57;44.14
62632;BME280;48703;51.248;-0.546;2023-06-04T14:08:49;101651;;;20.66;43.87
62632;BME280;48703;51.248;-0.546;2023-06-04T14:11:50;101650;;;20.72;42.74
62632;BME280;48703;51.248;-0.546;2023-06-04T14:14:52;101646;;;20.78;43.60
62632;BME280;48703;51.248;-0.546;2023-06-04T14:17:54;101646;;;20.84;42.46
62632;BME280;48703;51.248;-0.546;2023-06-04T14:20:56;101649;;;20.90;41.86
62632;BME280;48703;51.248;-0.546;2023-06-04T14:23:58;101644;;;20.98;42.90
62632;BME280;48703;51.248;-0.546;2023-06-04T14:27:00;101639;;;21.00;41.84
62632;BME280;48703;51.248;-0.546;2023-06-04T14:30:02;101640;;;21.03;41.87
62632;BME280;48703;51.248;-0.546;2023-06-04T14:33:04;101639;;;21.06;42.18
62632;BME280;48703;51.248;-0.546;2023-06-04T14:36:05;101635;;;21.14;42.50
62632;BME280;48703;51.248;-0.546;2023-06-04T14:39:07;101628;;;21.26;42.44
62632;BME280;48703;51.248;-0.546;2023-06-04T14:42:09;101632;;;21.37;42.08
62632;BME280;48703;51.248;-0.546;2023-06-04T14:45:11;101628;;;21.41;41.82
62632;BME280;48703;51.248;-0.546;2023-06-04T14:48:13;101627;;;21.50;42.27
62632;BME280;48703;51.248;-0.546;2023-06-04T14:51:15;101627;;;21.56;41.37
62632;BME280;48703;51.248;-0.546;2023-06-04T14:54:17;101621;;;21.62;41.77
62632;BME280;48703;51.248;-0.546;2023-06-04T14:57:18;101628;;;21.73;42.15
62632;BME280;48703;51.248;-0.546;2023-06-04T15:00:20;101622;;;21.85;42.96
62632;BME280;48703;51.248;-0.546;2023-06-04T15:03:22;101625;;;21.93;42.12
62632;BME280;48703;51.248;-0.546;2023-06-04T15:06:24;101627;;;22.11;41.25
62632;BME280;48703;51.248;-0.546;2023-06-04T15:09:26;101632;;;22.11;40.26
62632;BME280;48703;51.248;-0.546;2023-06-04T15:12:28;101627;;;22.15;40.61
62632;BME280;48703;51.248;-0.546;2023-06-04T15:15:30;101627;;;22.15;39.73
62632;BME280;48703;51.248;-0.546;2023-06-04T15:18:31;101627;;;22.18;40.67
62632;BME280;48703;51.248;-0.546;2023-06-04T15:21:33;101626;;;22.27;40.98
62632;BME280;48703;51.248;-0.546;2023-06-04T15:24:35;101622;;;22.30;39.74
62632;BME280;48703;51.248;-0.546;2023-06-04T15:27:37;101622;;;22.34;39.39
62632;BME280;48703;51.248;-0.546;2023-06-04T15:30:39;101618;;;22.37;39.79
62632;BME280;48703;51.248;-0.546;2023-06-04T15:33:41;101620;;;22.44;39.15
62632;BME280;48703;51.248;-0.546;2023-06-04T15:36:43;101613;;;22.50;39.64
62632;BME280;48703;51.248;-0.546;2023-06-04T15:39:45;101612;;;22.58;39.28
62632;BME280;48703;51.248;-0.546;2023-06-04T15:42:46;101610;;;22.64;39.45
62632;BME280;48703;51.248;-0.546;2023-06-04T15:45:48;101608;;;22.62;38.79
62632;BME280;48703;51.248;-0.546;2023-06-04T15:48:50;101616;;;22.68;38.80
62632;BME280;48703;51.248;-0.546;2023-06-04T15:51:52;101608;;;22.71;39.03
62632;BME280;48703;51.248;-0.546;2023-06-04T15:54:54;101604;;;22.82;40.11
62632;BME280;48703;51.248;-0.546;2023-06-04T15:57:56;101599;;;22.93;38.75
62632;BME280;48703;51.248;-0.546;2023-06-04T16:00:58;101599;;;22.97;38.20
62632;BME280;48703;51.248;-0.546;2023-06-04T16:03:59;101600;;;23.04;38.33
62632;BME280;48703;51.248;-0.546;2023-06-04T16:07:01;101597;;;23.01;38.11
62632;BME280;48703;51.248;-0.546;2023-06-04T16:10:03;101603;;;23.07;38.90
62632;BME280;48703;51.248;-0.546;2023-06-04T16:13:05;101603;;;23.05;37.19
62632;BME280;48703;51.248;-0.546;2023-06-04T16:16:07;101599;;;22.96;37.83